Terminal Aerodrome Forecast
Issued by NWS

Home | Current Version | Previous Version | Text Only | Print | Product List | Glossary On
Versions: 1 2 3 4 5 6 7 8 9 10 11 12 13 14 15 16 17 18
000
FTUS44 KEPZ 231700
TAFDMN
TAF
KDMN 231739Z 2318/2418 21006KT P6SM FEW050 FEW250
     FM240400 29006KT P6SM FEW250
     FM241700 16007KT P6SM FEW050 FEW250=

USA.gov is the U.S. government's official web portal to all federal, state and local government web resources and services.